createdAt,value
2017-10-09T00:00:27.315Z,76.00
2017-10-09T00:02:54.956Z,76.30
2017-10-09T00:05:22.659Z,76.80
2017-10-09T00:07:50.298Z,76.50
2017-10-09T00:10:17.937Z,75.90
2017-10-09T00:12:45.646Z,75.80
2017-10-09T00:15:13.289Z,76.30
2017-10-09T00:20:20.111Z,76.40
2017-10-09T00:22:47.743Z,76.40
2017-10-09T00:25:15.383Z,76.40
2017-10-09T00:27:44.028Z,77.10
2017-10-09T00:30:11.674Z,77.40
2017-10-09T00:35:07.970Z,76.90
2017-10-09T00:37:35.597Z,76.20
2017-10-09T00:40:03.249Z,76.40
2017-10-09T00:42:30.956Z,76.60
2017-10-09T00:44:59.530Z,77.00
2017-10-09T00:47:27.206Z,77.80
2017-10-09T00:49:54.906Z,77.20
2017-10-09T00:52:22.562Z,76.80
2017-10-09T00:54:50.194Z,76.80
2017-10-09T00:57:17.899Z,76.90
2017-10-09T00:59:45.550Z,77.80
2017-10-09T01:02:13.186Z,76.90
2017-10-09T01:04:40.890Z,77.10
2017-10-09T01:07:08.521Z,77.30
2017-10-09T01:09:37.012Z,76.50
2017-10-09T01:12:04.709Z,76.60
2017-10-09T01:14:32.346Z,76.40
2017-10-09T01:16:59.985Z,76.60
2017-10-09T01:19:27.702Z,76.90
2017-10-09T01:21:55.338Z,76.70
2017-10-09T01:24:22.974Z,77.00
2017-10-09T01:26:50.683Z,77.60
2017-10-09T01:29:18.319Z,76.80
2017-10-09T01:31:45.966Z,76.70
2017-10-09T01:34:13.674Z,76.60
2017-10-09T01:36:41.312Z,78.10
2017-10-09T01:39:08.958Z,78.00
2017-10-09T01:44:15.763Z,77.80
2017-10-09T01:46:43.476Z,77.50
2017-10-09T01:49:11.118Z,77.30
2017-10-09T01:51:38.760Z,77.70
2017-10-09T01:54:06.466Z,77.60
2017-10-09T01:56:34.104Z,77.30
2017-10-09T01:59:01.733Z,77.60
2017-10-09T02:01:29.456Z,76.80
2017-10-09T02:03:57.093Z,77.30
2017-10-09T02:06:24.737Z,76.70
2017-10-09T02:08:52.440Z,76.40
2017-10-09T02:11:20.078Z,75.80
2017-10-09T02:13:47.719Z,75.70
2017-10-09T02:16:15.421Z,75.80
2017-10-09T02:18:43.062Z,76.40
2017-10-09T02:21:10.702Z,76.90
2017-10-09T02:23:38.416Z,77.90
2017-10-09T02:26:06.069Z,78.60
2017-10-09T02:28:33.711Z,79.00
2017-10-09T02:31:01.420Z,79.40
2017-10-09T02:33:29.060Z,79.90
2017-10-09T02:35:56.706Z,79.30
2017-10-09T02:38:24.436Z,79.70
2017-10-09T02:40:52.082Z,80.00
2017-10-09T02:43:19.726Z,79.10
2017-10-09T02:45:47.436Z,79.00
2017-10-09T02:48:15.089Z,78.80
2017-10-09T02:50:42.731Z,78.20
2017-10-09T02:53:10.436Z,78.60
2017-10-09T02:55:38.080Z,78.90
2017-10-09T02:58:05.724Z,77.60
2017-10-09T03:00:33.432Z,78.30
2017-10-09T03:03:01.075Z,77.90
2017-10-09T03:05:28.719Z,78.20
2017-10-09T03:13:05.266Z,77.70
2017-10-09T03:15:32.920Z,76.90
2017-10-09T03:18:00.558Z,76.40
2017-10-09T03:20:28.263Z,76.50
2017-10-09T03:30:56.771Z,76.10
2017-10-09T03:33:24.423Z,75.80
2017-10-09T03:35:52.070Z,75.90
2017-10-09T03:38:19.804Z,76.00
2017-10-09T03:40:47.434Z,76.40
2017-10-09T03:43:15.072Z,76.90
2017-10-09T03:45:42.795Z,76.30
2017-10-09T03:48:11.274Z,76.20
2017-10-09T03:50:38.916Z,75.80
2017-10-09T03:53:06.627Z,76.60
2017-10-09T03:55:34.294Z,76.30
2017-10-09T03:58:02.090Z,75.70
2017-10-09T04:00:29.722Z,76.90
2017-10-09T04:02:57.367Z,76.30
2017-10-09T04:05:25.016Z,76.50
2017-10-09T04:07:52.724Z,76.30
2017-10-09T04:10:20.370Z,76.40
2017-10-09T04:12:48.015Z,76.20
2017-10-09T04:15:15.718Z,76.70
2017-10-09T04:17:43.370Z,76.80
2017-10-09T04:20:11.011Z,76.80
2017-10-09T04:22:39.546Z,76.30
2017-10-09T04:25:07.239Z,76.70
2017-10-09T04:27:35.729Z,77.30
2017-10-09T04:30:03.439Z,77.80
2017-10-09T04:32:31.104Z,77.90
2017-10-09T04:37:26.459Z,77.70
2017-10-09T04:39:54.106Z,78.10
2017-10-09T04:42:21.750Z,78.10
2017-10-09T04:44:49.467Z,77.80
2017-10-09T04:47:17.107Z,77.90
2017-10-09T04:52:23.959Z,77.80
2017-10-09T04:54:51.596Z,78.00
2017-10-09T04:57:20.046Z,77.40
2017-10-09T04:59:47.764Z,76.70
2017-10-09T05:02:15.403Z,76.60
2017-10-09T05:04:43.044Z,76.60
2017-10-09T05:07:10.754Z,76.50
2017-10-09T05:09:38.401Z,76.60
2017-10-09T05:12:06.036Z,76.00
2017-10-09T05:14:33.752Z,75.80
2017-10-09T05:17:01.722Z,76.30
2017-10-09T05:19:29.362Z,75.70
2017-10-09T05:24:24.702Z,74.90
2017-10-09T05:26:52.341Z,75.20
2017-10-09T05:31:47.701Z,77.10
2017-10-09T05:34:15.342Z,77.80
2017-10-09T05:36:43.046Z,78.80
2017-10-09T05:39:10.683Z,78.90
2017-10-09T05:41:38.329Z,79.30
2017-10-09T05:44:06.036Z,79.00
2017-10-09T05:46:33.687Z,78.80
2017-10-09T05:49:01.406Z,78.80
2017-10-09T05:51:29.098Z,78.00
2017-10-09T05:53:56.737Z,77.70
2017-10-09T05:56:24.385Z,77.90
2017-10-09T05:58:52.507Z,78.10
2017-10-09T06:01:20.070Z,78.20
2017-10-09T06:03:47.709Z,78.00
2017-10-09T06:06:15.426Z,78.40
2017-10-09T06:08:43.070Z,78.20
2017-10-09T06:13:49.895Z,78.10
2017-10-09T06:16:17.550Z,77.90
2017-10-09T06:18:45.203Z,77.50
2017-10-09T06:21:12.926Z,77.30
2017-10-09T06:23:40.589Z,78.20
2017-10-09T06:26:08.271Z,78.40
2017-10-09T06:28:35.997Z,78.00
2017-10-09T06:31:03.650Z,77.40
2017-10-09T06:33:31.320Z,77.30
2017-10-09T06:35:59.039Z,78.30
2017-10-09T06:38:27.630Z,78.90
2017-10-09T06:40:55.291Z,77.90
2017-10-09T06:43:23.038Z,76.60
2017-10-09T06:45:50.692Z,77.40
2017-10-09T06:48:18.350Z,76.10
2017-10-09T06:53:14.544Z,76.80
2017-10-09T06:55:42.200Z,77.30
2017-10-09T06:58:09.928Z,77.50
2017-10-09T07:00:37.582Z,78.20
2017-10-09T07:03:05.252Z,77.50
2017-10-09T07:05:32.984Z,76.90
2017-10-09T07:08:00.645Z,76.30
2017-10-09T07:10:28.340Z,76.80
2017-10-09T07:12:56.088Z,76.30
2017-10-09T07:15:23.724Z,76.60
2017-10-09T07:17:51.387Z,77.20
2017-10-09T07:20:19.130Z,76.70
2017-10-09T07:22:46.794Z,77.00
2017-10-09T07:25:14.487Z,75.90
2017-10-09T07:27:42.175Z,76.00
2017-10-09T07:30:09.838Z,76.10
2017-10-09T07:32:37.495Z,73.70
2017-10-09T07:35:05.214Z,75.00
2017-10-09T07:40:12.043Z,75.30
2017-10-09T07:42:39.697Z,74.30
2017-10-09T07:45:07.345Z,74.00
2017-10-09T07:50:03.721Z,71.90
2017-10-09T07:52:31.382Z,72.90
2017-10-09T07:54:59.120Z,72.80
2017-10-09T07:57:27.599Z,72.80
2017-10-09T07:59:56.118Z,72.70
2017-10-09T08:02:23.845Z,73.60
2017-10-09T08:04:52.354Z,73.20
2017-10-09T08:07:20.860Z,72.70
2017-10-09T08:09:48.584Z,72.60
2017-10-09T08:12:16.239Z,72.60
2017-10-09T08:14:43.907Z,69.60
2017-10-09T08:17:12.656Z,71.60
2017-10-09T08:19:41.288Z,71.60
2017-10-09T08:22:08.940Z,69.30
2017-10-09T08:24:36.665Z,72.10
2017-10-09T08:27:04.314Z,70.50
2017-10-09T08:29:31.976Z,70.40
2017-10-09T08:31:59.697Z,70.50
2017-10-09T08:34:27.400Z,69.40
2017-10-09T08:36:55.061Z,71.30
2017-10-09T08:39:22.776Z,71.20
2017-10-09T08:41:50.431Z,69.80
2017-10-09T08:44:18.080Z,69.00
2017-10-09T08:46:46.753Z,67.50
2017-10-09T08:49:14.417Z,68.20
2017-10-09T08:51:42.059Z,66.80
2017-10-09T08:54:09.775Z,66.20
2017-10-09T08:56:37.424Z,66.80
2017-10-09T08:59:05.125Z,66.50
2017-10-09T09:01:32.849Z,65.40
2017-10-09T09:06:39.678Z,65.50
2017-10-09T09:09:08.155Z,66.60
2017-10-09T09:11:35.795Z,63.10
2017-10-09T09:14:03.515Z,63.50
2017-10-09T09:16:31.169Z,65.20
2017-10-09T09:21:26.537Z,64.90
2017-10-09T09:23:54.205Z,63.20
2017-10-09T09:26:21.850Z,63.20
2017-10-09T09:28:49.576Z,62.10
2017-10-09T09:31:17.230Z,62.70
2017-10-09T09:33:44.889Z,63.40
2017-10-09T09:38:40.260Z,62.50
2017-10-09T09:41:07.909Z,61.90
2017-10-09T09:43:35.652Z,63.10
2017-10-09T09:46:03.301Z,60.70
2017-10-09T09:48:30.954Z,62.00
2017-10-09T09:50:58.666Z,61.10
2017-10-09T09:53:26.316Z,62.10
2017-10-09T09:55:54.701Z,63.70
2017-10-09T09:58:22.417Z,60.40
2017-10-09T10:00:50.064Z,62.60
2017-10-09T10:03:17.716Z,60.40
2017-10-09T10:05:45.438Z,60.90
2017-10-09T10:08:13.087Z,63.30
2017-10-09T10:10:40.736Z,64.00
2017-10-09T10:13:08.466Z,63.70
2017-10-09T10:15:36.119Z,63.80
2017-10-09T10:18:03.777Z,62.70
2017-10-09T10:20:31.519Z,60.90
2017-10-09T10:22:59.182Z,60.20
2017-10-09T10:25:26.830Z,61.40
2017-10-09T10:27:54.544Z,60.90
2017-10-09T10:33:03.366Z,59.10
2017-10-09T10:35:31.018Z,57.10
2017-10-09T10:37:58.675Z,58.00
2017-10-09T10:40:26.384Z,57.60
2017-10-09T10:42:54.043Z,57.90
2017-10-09T10:45:21.689Z,59.00
2017-10-09T10:50:17.054Z,55.10
2017-10-09T10:52:44.692Z,55.10
2017-10-09T10:55:12.398Z,56.60
2017-10-09T10:57:40.054Z,54.30
2017-10-09T11:00:07.695Z,56.10
2017-10-09T11:02:35.415Z,54.70
2017-10-09T11:05:03.073Z,54.50
2017-10-09T11:07:30.708Z,53.60
2017-10-09T11:09:58.425Z,52.90
2017-10-09T11:12:26.082Z,53.60
2017-10-09T11:14:53.731Z,54.10
2017-10-09T11:17:21.443Z,50.80
2017-10-09T11:19:49.089Z,51.60
2017-10-09T11:22:16.769Z,50.40
2017-10-09T11:24:44.488Z,51.30
2017-10-09T11:27:12.143Z,52.50
2017-10-09T11:29:39.799Z,46.90
2017-10-09T11:32:08.490Z,47.80
2017-10-09T11:34:36.129Z,48.50
2017-10-09T11:37:03.788Z,49.90
2017-10-09T11:41:59.163Z,51.00
2017-10-09T11:44:26.816Z,53.30
2017-10-09T11:46:54.536Z,51.80
2017-10-09T11:49:23.139Z,54.20
2017-10-09T11:51:51.677Z,50.00
2017-10-09T11:54:19.398Z,47.10
2017-10-09T11:59:26.252Z,48.20
2017-10-09T12:01:53.900Z,49.30
2017-10-09T12:04:22.312Z,50.60
2017-10-09T12:06:50.027Z,48.50
2017-10-09T12:09:17.684Z,48.00
2017-10-09T12:11:45.336Z,47.40
2017-10-09T12:14:13.057Z,45.50
2017-10-09T12:16:40.706Z,43.40
2017-10-09T12:19:08.360Z,44.00
2017-10-09T12:21:36.085Z,45.60
2017-10-09T12:24:03.746Z,44.70
2017-10-09T12:26:31.408Z,46.10
2017-10-09T12:28:59.122Z,46.50
2017-10-09T12:31:26.761Z,45.40
2017-10-09T12:33:54.412Z,44.60
2017-10-09T12:36:22.136Z,44.10
2017-10-09T12:38:49.779Z,46.80
2017-10-09T12:41:17.428Z,45.90
2017-10-09T12:43:45.152Z,46.40
2017-10-09T12:46:12.801Z,47.70
2017-10-09T12:48:40.438Z,45.90
2017-10-09T12:51:08.177Z,46.90
2017-10-09T12:53:35.822Z,45.90
2017-10-09T12:56:03.483Z,46.50
2017-10-09T12:58:31.200Z,44.70
2017-10-09T13:00:59.798Z,45.70
2017-10-09T13:03:27.464Z,43.90
2017-10-09T13:08:22.811Z,44.70
2017-10-09T13:10:50.463Z,43.60
2017-10-09T13:13:18.188Z,43.80
2017-10-09T13:15:45.837Z,41.20
2017-10-09T13:18:13.485Z,43.70
2017-10-09T13:20:41.200Z,42.50
2017-10-09T13:23:09.708Z,43.50
2017-10-09T13:28:16.565Z,42.10
2017-10-09T13:30:44.220Z,42.20
2017-10-09T13:35:39.614Z,42.10
2017-10-09T13:38:07.268Z,39.20
2017-10-09T13:40:34.915Z,39.00
2017-10-09T13:43:02.635Z,39.40
2017-10-09T13:45:30.282Z,38.00
2017-10-09T13:47:58.892Z,39.40
2017-10-09T13:50:26.610Z,40.00
2017-10-09T13:52:54.264Z,42.20
2017-10-09T13:55:21.947Z,44.20
2017-10-09T13:57:49.667Z,40.50
2017-10-09T14:00:17.320Z,40.50
2017-10-09T14:02:44.972Z,40.70
2017-10-09T14:05:12.692Z,40.90
2017-10-09T14:07:40.340Z,40.80
2017-10-09T14:10:07.987Z,41.30
2017-10-09T14:12:35.705Z,39.80
2017-10-09T14:15:03.359Z,39.90
2017-10-09T14:17:31.011Z,41.90
2017-10-09T14:19:58.734Z,43.10
2017-10-09T14:22:26.371Z,44.00
2017-10-09T14:24:54.028Z,43.70
2017-10-09T14:27:21.748Z,44.70
2017-10-09T14:29:49.396Z,45.50
2017-10-09T14:42:08.661Z,46.00
2017-10-09T14:44:36.307Z,45.00
2017-10-09T14:47:03.957Z,45.20
2017-10-09T14:49:31.679Z,45.30
2017-10-09T14:51:59.320Z,46.30
2017-10-09T14:57:06.140Z,46.90
2017-10-09T14:59:33.784Z,47.50
2017-10-09T15:02:01.439Z,48.00
2017-10-09T15:04:29.147Z,47.80
2017-10-09T15:06:56.805Z,47.90
2017-10-09T15:11:52.988Z,48.70
2017-10-09T15:14:21.405Z,48.30
2017-10-09T15:16:49.047Z,48.00
2017-10-09T15:19:16.766Z,47.80
2017-10-09T15:21:44.423Z,47.50
2017-10-09T15:24:12.077Z,48.50
2017-10-09T15:29:08.412Z,49.40
2017-10-09T15:31:36.093Z,49.90
2017-10-09T15:34:03.804Z,49.10
2017-10-09T15:36:31.459Z,49.50
2017-10-09T15:38:59.108Z,49.00
2017-10-09T15:41:26.835Z,49.90
2017-10-09T15:43:54.476Z,50.30
2017-10-09T15:48:49.848Z,49.50
2017-10-09T15:51:24.581Z,51.20
2017-10-09T15:53:52.303Z,51.20
2017-10-09T15:56:19.958Z,51.70
2017-10-09T15:58:47.606Z,51.40
2017-10-09T16:01:15.333Z,51.70
2017-10-09T16:03:43.816Z,51.00
2017-10-09T16:06:11.475Z,51.50
2017-10-09T16:08:39.193Z,52.00
2017-10-09T16:11:06.840Z,51.70
2017-10-09T16:16:13.680Z,51.90
2017-10-09T16:18:41.330Z,51.80
2017-10-09T16:21:08.972Z,52.20
2017-10-09T16:23:36.683Z,51.70
2017-10-09T16:26:04.341Z,51.70
2017-10-09T16:28:31.977Z,52.10
2017-10-09T16:30:59.700Z,52.60
2017-10-09T16:33:27.349Z,52.90
2017-10-09T16:35:54.993Z,52.50
2017-10-09T16:38:22.696Z,53.30
2017-10-09T16:40:50.346Z,51.50
2017-10-09T16:43:18.025Z,53.40
2017-10-09T16:45:45.772Z,53.00
2017-10-09T16:48:13.405Z,53.30
2017-10-09T16:50:41.067Z,54.00
2017-10-09T16:53:08.777Z,54.50
2017-10-09T16:55:36.419Z,53.40
2017-10-09T16:58:04.110Z,54.30
2017-10-09T17:00:31.813Z,54.20
2017-10-09T17:02:59.454Z,54.20
2017-10-09T17:05:27.112Z,53.90
2017-10-09T17:07:56.777Z,54.00
2017-10-09T17:10:24.423Z,54.40
2017-10-09T17:12:52.073Z,54.60
2017-10-09T17:15:20.607Z,54.70
2017-10-09T17:17:48.247Z,54.70
2017-10-09T17:20:15.891Z,54.50
2017-10-09T17:22:43.639Z,54.30
2017-10-09T17:25:11.279Z,53.80
2017-10-09T17:27:38.929Z,54.40
2017-10-09T17:30:07.369Z,54.70
2017-10-09T17:32:35.012Z,54.40
2017-10-09T17:35:02.668Z,54.60
2017-10-09T17:37:30.419Z,54.20
2017-10-09T17:42:39.313Z,53.30
2017-10-09T17:45:06.955Z,54.20
2017-10-09T17:47:34.631Z,56.00
2017-10-09T17:50:02.298Z,57.30
2017-10-09T17:52:29.950Z,58.60
2017-10-09T17:54:57.588Z,59.20
2017-10-09T17:57:25.312Z,59.70
2017-10-09T18:02:20.599Z,62.40
2017-10-09T18:04:48.326Z,62.50
2017-10-09T18:07:15.975Z,62.50
2017-10-09T18:09:43.627Z,62.50
2017-10-09T18:12:11.363Z,62.00
2017-10-09T18:14:39.003Z,62.60
2017-10-09T18:17:06.642Z,63.50
2017-10-09T18:19:34.357Z,63.10
2017-10-09T18:22:02.814Z,62.90
2017-10-09T18:24:30.463Z,63.30
2017-10-09T18:26:58.196Z,63.20
2017-10-09T18:29:25.807Z,63.40
2017-10-09T18:31:53.455Z,63.60
2017-10-09T18:34:21.163Z,64.00
2017-10-09T18:36:48.803Z,64.00
2017-10-09T18:39:16.462Z,65.00
2017-10-09T18:41:44.679Z,64.60
2017-10-09T18:44:12.029Z,64.30
2017-10-09T18:46:39.696Z,64.90
2017-10-09T18:49:07.404Z,64.50
2017-10-09T18:54:02.685Z,65.00
2017-10-09T18:56:30.394Z,64.40
2017-10-09T19:01:25.671Z,64.70
2017-10-09T19:03:53.371Z,65.60
2017-10-09T19:11:29.840Z,65.10
2017-10-09T19:13:57.489Z,65.20
2017-10-09T19:16:25.133Z,64.90
2017-10-09T19:18:52.861Z,65.20
2017-10-09T19:26:24.482Z,64.90
2017-10-09T19:28:52.251Z,64.60
2017-10-09T19:31:19.911Z,64.40
2017-10-09T19:33:47.607Z,65.00
2017-10-09T19:36:15.323Z,64.70
2017-10-09T19:38:43.234Z,64.30
2017-10-09T19:41:10.851Z,65.20
2017-10-09T19:43:39.529Z,64.80
2017-10-09T19:46:07.119Z,65.50
2017-10-09T19:48:34.752Z,65.00
2017-10-09T19:51:02.442Z,65.00
2017-10-09T19:53:30.097Z,65.80
2017-10-09T19:55:57.738Z,66.50
2017-10-09T19:58:25.449Z,66.30
2017-10-09T20:00:53.098Z,65.40
2017-10-09T20:03:20.983Z,64.90
2017-10-09T20:05:48.690Z,65.50
2017-10-09T20:08:16.496Z,65.10
2017-10-09T20:10:44.498Z,64.50
2017-10-09T20:13:12.579Z,64.50
2017-10-09T20:15:40.507Z,64.50
2017-10-09T20:18:09.205Z,63.70
2017-10-09T20:20:37.475Z,63.80
2017-10-09T20:25:44.223Z,63.70
2017-10-09T20:28:11.938Z,63.80
2017-10-09T20:30:39.585Z,63.90
2017-10-09T20:33:07.304Z,63.40
2017-10-09T20:35:34.956Z,63.90
2017-10-09T20:38:02.596Z,64.50
2017-10-09T20:40:30.299Z,64.30
2017-10-09T20:42:57.931Z,63.90
2017-10-09T20:45:25.594Z,63.90
2017-10-09T20:47:53.286Z,63.90
2017-10-09T20:50:20.934Z,64.30
2017-10-09T20:52:48.572Z,64.40
2017-10-09T20:55:16.266Z,64.60
2017-10-09T20:57:43.916Z,64.50
2017-10-09T21:00:11.549Z,65.10
2017-10-09T21:02:39.255Z,64.00
2017-10-09T21:05:06.895Z,65.00
2017-10-09T21:07:34.559Z,65.00
2017-10-09T21:10:02.268Z,65.00
2017-10-09T21:12:29.944Z,65.10
2017-10-09T21:14:57.664Z,66.00
2017-10-09T21:17:25.300Z,64.60
2017-10-09T21:19:52.950Z,65.20
2017-10-09T21:22:20.596Z,65.00
2017-10-09T21:24:48.370Z,64.80
2017-10-09T21:27:15.965Z,64.90
2017-10-09T21:29:43.599Z,64.50
2017-10-09T21:32:11.306Z,64.70
2017-10-09T21:34:38.967Z,64.00
2017-10-09T21:37:06.621Z,64.00
2017-10-09T21:39:34.303Z,64.40
2017-10-09T21:42:02.012Z,64.50
2017-10-09T21:44:29.638Z,66.00
2017-10-09T21:49:36.476Z,66.40
2017-10-09T21:52:07.471Z,67.00
2017-10-09T21:54:35.923Z,68.50
2017-10-09T21:57:03.596Z,68.20
2017-10-09T21:59:31.341Z,70.20
2017-10-09T22:01:58.971Z,69.30
2017-10-09T22:04:26.606Z,68.40
2017-10-09T22:06:54.294Z,68.10
2017-10-09T22:09:21.926Z,68.30
2017-10-09T22:11:49.549Z,68.80
2017-10-09T22:14:17.244Z,69.20
2017-10-09T22:16:44.863Z,69.00
2017-10-09T22:19:12.670Z,69.10
2017-10-09T22:21:40.363Z,68.40
2017-10-09T22:24:07.981Z,68.70
2017-10-09T22:26:35.605Z,69.00
2017-10-09T22:29:03.284Z,68.80
2017-10-09T22:31:30.902Z,68.30
2017-10-09T22:36:26.199Z,67.90
2017-10-09T22:38:53.844Z,68.60
2017-10-09T22:41:21.439Z,69.10
2017-10-09T22:43:49.951Z,68.60
2017-10-09T22:46:17.576Z,69.00
2017-10-09T22:48:45.197Z,68.00
2017-10-09T22:51:12.887Z,68.50
2017-10-09T22:53:40.503Z,68.20
2017-10-09T22:56:08.126Z,69.20
2017-10-09T22:58:36.770Z,69.30
2017-10-09T23:05:59.699Z,69.80
2017-10-09T23:08:27.320Z,69.70
2017-10-09T23:10:54.939Z,69.80
2017-10-09T23:13:22.655Z,70.00
2017-10-09T23:18:31.423Z,70.60
2017-10-09T23:20:59.046Z,70.70
2017-10-09T23:23:26.661Z,71.40
2017-10-09T23:25:54.333Z,70.60
2017-10-09T23:28:21.949Z,71.40
2017-10-09T23:30:49.572Z,71.70
2017-10-09T23:33:17.259Z,72.20
2017-10-09T23:35:44.884Z,72.30
2017-10-09T23:38:12.520Z,72.80
2017-10-09T23:40:40.199Z,72.80
2017-10-09T23:43:08.644Z,73.10
2017-10-09T23:45:36.262Z,72.10
2017-10-09T23:48:03.948Z,72.20
2017-10-09T23:50:31.567Z,72.10
2017-10-09T23:52:59.192Z,72.60
2017-10-09T23:55:26.879Z,73.30
2017-10-09T23:57:54.507Z,73.60
